Time;durP1;ratioP1;P1;durP2;ratioP2;P2;SDS_P1;SDS_P2;PMS_P1;PMS_P2;Temp;Humidity;BMP_temperature;BMP_pressure;BME280_temperature;BME280_humidity;BME280_pressure;Samples;Min_cycle;Max_cycle;Signal;HPM_P1;HPM_P2
2022/12/21 00:01:37;;;;;;;43.50;26.30;;;;;;;6.56;88.15;100209.16;5050024;28;20408;-74
2022/12/21 00:04:04;;;;;;;40.93;24.67;;;;;;;6.54;88.16;100198.63;5036463;28;20458;-74
2022/12/21 00:06:33;;;;;;;41.67;22.80;;;;;;;6.53;88.60;100188.06;5031999;28;20496;-74
2022/12/21 00:09:00;;;;;;;36.85;22.80;;;;;;;6.57;88.28;100191.97;5049251;28;20386;-74
2022/12/21 00:11:27;;;;;;;35.13;21.50;;;;;;;6.57;88.40;100192.78;5029388;28;20980;-74
2022/12/21 00:13:56;;;;;;;35.90;21.85;;;;;;;6.59;88.48;100196.06;5030275;28;20738;-74
2022/12/21 00:16:23;;;;;;;36.33;19.60;;;;;;;6.61;88.61;100194.00;5050583;28;20403;-74
2022/12/21 00:18:49;;;;;;;31.85;18.88;;;;;;;6.63;88.22;100183.81;5050407;28;20741;-75
2022/12/21 00:21:20;;;;;;;27.80;18.33;;;;;;;6.70;88.30;100189.94;5050491;28;20397;-74
2022/12/21 00:23:48;;;;;;;31.45;18.38;;;;;;;6.74;88.43;100177.66;5035745;28;20409;-74
2022/12/21 00:26:18;;;;;;;21.33;15.48;;;;;;;6.78;88.61;100180.72;5046282;28;20393;-75
2022/12/21 00:28:43;;;;;;;25.80;16.95;;;;;;;6.81;88.28;100185.66;5038109;28;20430;-75
2022/12/21 00:31:15;;;;;;;24.20;16.00;;;;;;;6.83;88.63;100178.16;5043957;28;20918;-74
2022/12/21 00:33:41;;;;;;;22.38;16.00;;;;;;;6.81;88.17;100180.28;5020258;28;20443;-74
2022/12/21 00:36:10;;;;;;;28.45;16.45;;;;;;;6.84;88.26;100182.50;5050464;28;20753;-74
2022/12/21 00:38:35;;;;;;;26.27;16.17;;;;;;;6.86;88.79;100179.56;5050378;28;20385;-74
2022/12/21 00:41:07;;;;;;;22.73;14.83;;;;;;;6.90;88.80;100170.00;5049749;28;20443;-74
2022/12/21 00:43:34;;;;;;;22.80;14.43;;;;;;;6.94;88.35;100172.03;5019572;28;20778;-74
2022/12/21 00:46:00;;;;;;;21.20;14.60;;;;;;;7.01;88.32;100172.75;5038188;28;20401;-74
2022/12/21 00:48:26;;;;;;;20.33;13.07;;;;;;;7.09;88.28;100172.41;5041450;28;20402;-74
2022/12/21 00:50:52;;;;;;;18.83;11.68;;;;;;;7.16;88.04;100170.44;5025832;28;20821;-74
2022/12/21 00:53:17;;;;;;;20.27;12.47;;;;;;;7.25;87.76;100170.94;5046315;28;20456;-74
2022/12/21 00:55:56;;;;;;;15.80;11.57;;;;;;;7.33;88.18;100159.84;5042555;28;20429;-74
2022/12/21 00:58:23;;;;;;;18.38;12.48;;;;;;;7.35;87.85;100159.59;5043300;28;20791;-74
2022/12/21 01:00:49;;;;;;;14.57;11.15;;;;;;;7.39;88.20;100160.78;5048900;28;20389;-75
2022/12/21 01:03:14;;;;;;;17.23;10.17;;;;;;;7.47;87.74;100163.16;5022060;28;20462;-74
2022/12/21 01:05:39;;;;;;;14.77;10.43;;;;;;;7.53;87.89;100160.34;5027693;28;20887;-74
2022/12/21 01:08:04;;;;;;;13.00;10.17;;;;;;;7.60;87.97;100154.84;5050006;28;20508;-75
2022/12/21 01:10:30;;;;;;;16.97;10.47;;;;;;;7.64;87.67;100151.44;5049686;28;20472;-74
2022/12/21 01:12:57;;;;;;;14.13;8.27;;;;;;;7.74;88.30;100150.84;5048799;28;20409;-74
2022/12/21 01:15:22;;;;;;;16.60;8.55;;;;;;;7.84;87.52;100159.19;5033799;28;20439;-75
2022/12/21 01:17:47;;;;;;;15.52;9.15;;;;;;;7.89;87.32;100153.94;5036781;28;20868;-74
2022/12/21 01:20:13;;;;;;;13.50;7.93;;;;;;;7.91;87.18;100145.59;5051588;28;20470;-74
2022/12/21 01:22:38;;;;;;;9.87;6.70;;;;;;;7.93;87.22;100144.31;5052459;28;20387;-74
2022/12/21 01:25:04;;;;;;;11.27;7.20;;;;;;;8.04;87.65;100148.88;5039510;28;20427;-74
2022/12/21 01:27:29;;;;;;;11.15;7.22;;;;;;;8.10;87.80;100155.22;5053635;28;20783;-74
2022/12/21 01:29:54;;;;;;;12.17;7.90;;;;;;;8.16;87.59;100149.69;5035721;28;20393;-74
2022/12/21 01:32:20;;;;;;;9.23;6.53;;;;;;;8.18;87.26;100155.66;5048504;28;20423;-75
2022/12/21 01:34:45;;;;;;;13.80;6.83;;;;;;;8.21;87.31;100163.28;5034150;28;20442;-74
2022/12/21 01:37:10;;;;;;;10.47;6.80;;;;;;;8.29;87.30;100160.28;5032009;28;20404;-74
2022/12/21 01:39:36;;;;;;;10.45;5.90;;;;;;;8.36;87.57;100167.41;5039593;28;20833;-74
2022/12/21 01:42:01;;;;;;;9.67;4.97;;;;;;;8.38;87.18;100163.41;5052239;28;20749;-74
2022/12/21 01:45:23;;;;;;;7.67;5.97;;;;;;;8.43;87.54;100163.50;5026722;28;20756;-74
2022/12/21 01:47:55;;;;;;;8.70;6.22;;;;;;;8.54;87.28;100167.25;5030771;28;20413;-75
2022/12/21 01:51:00;;;;;;;11.43;4.82;;;;;;;8.67;86.86;100164.28;5015837;28;20403;-75
2022/12/21 01:53:40;;;;;;;8.40;4.77;;;;;;;8.66;86.99;100159.97;5015766;28;20420;-74
2022/12/21 01:56:08;;;;;;;5.47;3.42;;;;;;;8.75;87.11;100163.91;5022740;28;20405;-74
2022/12/21 01:58:35;;;;;;;8.40;3.65;;;;;;;8.80;87.20;100162.13;5008790;28;20401;-74
2022/12/21 02:01:02;;;;;;;4.68;3.55;;;;;;;8.86;87.23;100155.75;5037251;28;20384;-74
2022/12/21 02:03:33;;;;;;;6.68;3.85;;;;;;;8.95;87.50;100158.91;5023762;28;20428;-74
2022/12/21 02:06:08;;;;;;;5.13;4.07;;;;;;;9.01;87.36;100167.94;5051232;28;20396;-74
2022/12/21 02:08:34;;;;;;;4.43;3.90;;;;;;;9.04;86.82;100154.75;5052396;28;20412;-74
2022/12/21 02:11:00;;;;;;;8.75;5.03;;;;;;;9.06;87.03;100149.09;5048103;28;20523;-75
2022/12/21 02:13:26;;;;;;;5.10;3.10;;;;;;;9.09;86.75;100148.63;5049724;28;20491;-74
2022/12/21 02:16:17;;;;;;;11.35;3.40;;;;;;;9.13;86.93;100147.88;5051403;28;20452;-74
2022/12/21 02:19:18;;;;;;;6.88;3.47;;;;;;;9.24;86.88;100152.41;5034571;28;20401;-75
2022/12/21 02:21:53;;;;;;;5.32;2.88;;;;;;;9.18;87.29;100150.69;5051217;28;20408;-75
2022/12/21 02:24:24;;;;;;;4.87;3.53;;;;;;;9.19;87.27;100154.19;5046858;28;20892;-74
2022/12/21 02:26:52;;;;;;;6.10;2.58;;;;;;;9.21;87.07;100144.78;5041739;28;20890;-74
2022/12/21 02:29:48;;;;;;;5.40;4.35;;;;;;;9.21;87.24;100147.50;5041881;28;20393;-74
2022/12/21 02:32:45;;;;;;;5.68;3.40;;;;;;;9.22;87.20;100145.63;5030428;28;20420;-74
2022/12/21 02:35:47;;;;;;;4.75;2.92;;;;;;;9.25;87.28;100145.13;5022504;28;20415;-74
2022/12/21 02:38:44;;;;;;;6.70;2.90;;;;;;;9.29;87.30;100138.16;5052063;28;20899;-74
2022/12/21 02:41:27;;;;;;;3.30;2.23;;;;;;;9.30;87.09;100142.50;5051126;28;20496;-74
2022/12/21 02:44:12;;;;;;;11.40;6.57;;;;;;;9.35;87.77;100140.69;5041155;28;20397;-75
2022/12/21 02:46:45;;;;;;;4.35;3.08;;;;;;;9.43;87.07;100141.38;5021407;28;20461;-74
2022/12/21 02:49:27;;;;;;;2.72;2.33;;;;;;;9.43;87.05;100136.78;5049417;28;20470;-74
2022/12/21 02:52:37;;;;;;;3.33;2.28;;;;;;;9.44;87.40;100126.78;5051666;28;20389;-74
2022/12/21 02:55:03;;;;;;;6.53;2.85;;;;;;;9.51;87.44;100130.16;5043607;28;20407;-74
2022/12/21 02:57:33;;;;;;;4.07;2.83;;;;;;;9.57;87.37;100121.03;5050570;28;20455;-74
2022/12/21 03:00:01;;;;;;;3.50;2.20;;;;;;;9.52;86.96;100131.78;5029546;28;20416;-74
2022/12/21 03:03:47;;;;;;;3.70;2.63;;;;;;;9.46;87.27;100130.06;5044135;28;20431;-74
2022/12/21 03:05:58;;;;;;;5.80;2.47;;;;;;;9.48;87.55;100127.94;5029467;28;20444;-74
2022/12/21 03:08:56;;;;;;;2.97;2.17;;;;;;;9.52;87.69;100123.66;5050266;28;20435;-74
2022/12/21 03:11:30;;;;;;;5.57;2.00;;;;;;;9.55;87.71;100121.28;5029161;28;20417;-74
2022/12/21 03:14:05;;;;;;;5.60;2.03;;;;;;;9.56;87.49;100130.22;5019430;28;20431;-74
2022/12/21 03:16:48;;;;;;;3.08;1.90;;;;;;;9.52;87.57;100131.78;5037613;28;20418;-74
2022/12/21 03:19:35;;;;;;;2.47;2.15;;;;;;;9.55;87.67;100128.59;5032885;28;20398;-74
2022/12/21 03:22:23;;;;;;;3.03;2.38;;;;;;;9.56;87.27;100135.63;5033995;28;20497;-74
2022/12/21 03:24:57;;;;;;;3.33;2.05;;;;;;;9.58;87.43;100130.81;5029861;28;20408;-74
2022/12/21 03:27:30;;;;;;;2.55;2.00;;;;;;;9.59;87.67;100127.03;5051289;28;20472;-75
2022/12/21 03:30:05;;;;;;;3.28;1.85;;;;;;;9.73;87.50;100134.56;5051157;28;20412;-74
2022/12/21 03:32:47;;;;;;;2.10;1.60;;;;;;;9.73;87.89;100131.88;5042951;28;20994;-74
2022/12/21 03:35:20;;;;;;;5.97;2.05;;;;;;;9.71;87.46;100135.88;5033872;28;20868;-74
2022/12/21 03:37:49;;;;;;;2.70;1.73;;;;;;;9.69;87.92;100127.19;5020421;28;20420;-74
2022/12/21 03:40:21;;;;;;;4.32;1.73;;;;;;;9.65;87.50;100131.47;5036555;28;20412;-74
2022/12/21 03:42:56;;;;;;;4.60;1.73;;;;;;;9.61;88.25;100124.91;5050962;28;20939;-74
2022/12/21 03:45:27;;;;;;;7.03;1.83;;;;;;;9.69;88.17;100129.88;5050675;28;20421;-74
2022/12/21 03:48:02;;;;;;;2.10;1.80;;;;;;;9.68;87.65;100131.78;5050108;28;20400;-74
2022/12/21 03:50:33;;;;;;;1.83;1.50;;;;;;;9.70;88.21;100126.94;5022998;28;20876;-74
2022/12/21 03:53:08;;;;;;;3.35;1.60;;;;;;;9.71;88.19;100128.59;5020830;28;20775;-75
2022/12/21 03:55:36;;;;;;;2.00;1.50;;;;;;;9.77;88.35;100121.38;5040964;28;20490;-74
2022/12/21 03:58:03;;;;;;;3.35;2.00;;;;;;;9.76;87.72;100119.72;5049826;28;20391;-75
2022/12/21 04:00:36;;;;;;;3.83;1.83;;;;;;;9.79;88.10;100124.63;5029455;28;20505;-74
2022/12/21 04:03:14;;;;;;;2.45;1.63;;;;;;;9.81;87.71;100122.53;5041983;28;20403;-74
2022/12/21 04:05:47;;;;;;;4.15;2.35;;;;;;;9.77;87.55;100114.06;5033448;28;20403;-75
2022/12/21 04:08:13;;;;;;;2.20;1.70;;;;;;;9.77;88.22;100107.84;5045933;28;20427;-74
2022/12/21 04:10:38;;;;;;;1.50;1.40;;;;;;;9.75;88.21;100115.38;5030180;28;20394;-74
2022/12/21 04:13:03;;;;;;;2.80;1.30;;;;;;;9.77;88.58;100110.53;5047378;28;20763;-74
2022/12/21 04:16:03;;;;;;;2.93;1.83;;;;;;;9.80;88.44;100116.28;5043912;28;20932;-74
2022/12/21 04:18:14;;;;;;;2.95;1.52;;;;;;;9.80;88.24;100112.75;5037098;28;20437;-74
2022/12/21 04:20:39;;;;;;;1.58;1.50;;;;;;;9.78;88.13;100110.28;5023059;28;20409;-74
2022/12/21 04:28:32;;;;;;;1.88;1.40;;;;;;;9.84;88.09;100108.50;5038299;28;20475;-75
2022/12/21 04:30:59;;;;;;;3.80;1.90;;;;;;;9.83;87.94;100110.38;5036996;28;20383;-74
2022/12/21 04:33:26;;;;;;;3.58;2.50;;;;;;;9.82;87.89;100108.72;5039017;28;20958;-74
2022/12/21 04:38:41;;;;;;;4.40;1.90;;;;;;;9.81;88.19;100109.00;5050390;28;20488;-74
2022/12/21 04:41:07;;;;;;;4.68;1.85;;;;;;;9.81;88.17;100109.00;5049255;28;20397;-74
2022/12/21 04:43:37;;;;;;;1.47;1.37;;;;;;;9.81;88.24;100106.28;5028444;28;20757;-74
2022/12/21 04:46:08;;;;;;;1.42;1.33;;;;;;;9.78;88.05;100117.59;5029612;28;20488;-74
2022/12/21 04:48:35;;;;;;;2.67;1.83;;;;;;;9.75;88.37;100113.47;5049575;28;20405;-74
2022/12/21 04:51:12;;;;;;;2.13;1.40;;;;;;;9.71;88.64;100111.53;5039920;28;20437;-75
2022/12/21 04:53:38;;;;;;;4.13;1.70;;;;;;;9.65;88.92;100107.91;5054145;28;20413;-74
2022/12/21 04:56:04;;;;;;;3.08;1.50;;;;;;;9.65;89.23;100102.50;5042862;28;20466;-74
2022/12/21 04:58:29;;;;;;;4.43;1.88;;;;;;;9.70;89.43;100102.59;5033340;28;20403;-74
2022/12/21 05:00:54;;;;;;;2.97;1.60;;;;;;;9.69;88.94;100108.25;5023242;28;20431;-74
2022/12/21 05:03:20;;;;;;;2.60;1.83;;;;;;;9.69;88.99;100100.94;5025384;28;20868;-75
2022/12/21 05:05:46;;;;;;;5.25;2.03;;;;;;;9.63;89.58;100095.72;5053865;28;20397;-74
2022/12/21 05:08:12;;;;;;;4.07;2.05;;;;;;;9.66;89.73;100100.63;5050127;28;20381;-74
2022/12/21 05:10:38;;;;;;;5.25;3.38;;;;;;;9.64;90.04;100094.66;5023807;28;20404;-74
2022/12/21 05:13:03;;;;;;;2.10;1.90;;;;;;;9.66;90.06;100101.44;5041477;28;20436;-74
2022/12/21 05:15:30;;;;;;;2.37;1.47;;;;;;;9.64;90.18;100103.59;5040894;28;20435;-74
2022/12/21 05:17:56;;;;;;;3.80;2.28;;;;;;;9.61;90.47;100101.38;5051705;28;20389;-74
2022/12/21 05:20:22;;;;;;;2.05;1.48;;;;;;;9.59;90.17;100103.50;5052660;28;20729;-74
2022/12/21 05:22:47;;;;;;;1.87;1.30;;;;;;;9.55;90.13;100096.94;5053495;28;20390;-74
2022/12/21 05:25:12;;;;;;;4.13;1.50;;;;;;;9.56;89.96;100104.00;5040806;28;20408;-74
2022/12/21 05:27:37;;;;;;;2.70;1.87;;;;;;;9.55;90.22;100106.97;5044917;28;20427;-74
2022/12/21 05:30:04;;;;;;;3.40;1.60;;;;;;;9.49;90.39;100095.22;5023672;28;20466;-74
2022/12/21 05:32:29;;;;;;;4.40;1.65;;;;;;;9.46;90.51;100093.00;5032921;28;20405;-74
2022/12/21 05:34:54;;;;;;;2.33;1.60;;;;;;;9.50;90.39;100094.16;5033664;28;20403;-74
2022/12/21 05:37:20;;;;;;;2.75;2.00;;;;;;;9.50;90.11;100091.47;5027730;28;20437;-74
2022/12/21 05:39:45;;;;;;;2.70;1.90;;;;;;;9.53;90.34;100096.38;5028982;28;20407;-74
2022/12/21 05:42:10;;;;;;;1.50;1.38;;;;;;;9.52;90.41;100083.06;5031545;28;20931;-74
2022/12/21 05:44:35;;;;;;;1.73;1.60;;;;;;;9.54;90.04;100081.78;5023916;28;20409;-75
2022/12/21 05:47:01;;;;;;;3.67;1.53;;;;;;;9.52;90.19;100085.78;5020181;28;20968;-75
2022/12/21 05:49:26;;;;;;;1.40;1.27;;;;;;;9.51;90.19;100084.16;5015615;28;20499;-74
2022/12/21 05:51:51;;;;;;;3.20;1.60;;;;;;;9.51;90.34;100078.75;5014639;28;20400;-74
2022/12/21 05:54:17;;;;;;;3.10;1.50;;;;;;;9.52;90.27;100089.31;5032613;28;20436;-74
2022/12/21 05:56:42;;;;;;;7.50;3.53;;;;;;;9.49;90.37;100079.00;5023720;28;20409;-74
2022/12/21 05:59:08;;;;;;;5.57;3.63;;;;;;;9.51;90.45;100073.34;5034660;28;20417;-74
2022/12/21 06:01:33;;;;;;;3.10;1.50;;;;;;;9.50;90.41;100077.94;5022867;28;20416;-74
2022/12/21 06:03:58;;;;;;;4.03;1.67;;;;;;;9.50;90.71;100077.94;5034769;28;20485;-74
2022/12/21 06:06:24;;;;;;;3.43;1.63;;;;;;;9.50;90.71;100075.22;5017795;28;20409;-75
2022/12/21 06:08:49;;;;;;;3.73;2.20;;;;;;;9.53;90.71;100074.72;5023269;28;20404;-74
2022/12/21 06:11:17;;;;;;;5.17;1.70;;;;;;;9.59;90.43;100075.63;5030141;28;20446;-74
2022/12/21 06:13:45;;;;;;;5.25;2.90;;;;;;;9.64;90.15;100081.13;5028656;28;20463;-75
2022/12/21 06:16:14;;;;;;;7.07;2.95;;;;;;;9.64;89.98;100078.41;5024754;28;20443;-75
2022/12/21 06:18:40;;;;;;;4.25;2.20;;;;;;;9.68;90.21;100079.56;5023527;28;20424;-74
2022/12/21 06:21:06;;;;;;;3.28;1.90;;;;;;;9.69;90.07;100073.88;5033103;28;20764;-75
2022/12/21 06:23:31;;;;;;;3.95;1.52;;;;;;;9.70;89.93;100080.94;5039152;28;20438;-74
2022/12/21 06:25:59;;;;;;;4.70;2.00;;;;;;;9.68;90.37;100077.66;5032181;28;20873;-74
2022/12/21 06:28:25;;;;;;;3.87;2.43;;;;;;;9.71;90.33;100076.38;5037798;28;20613;-74
2022/12/21 06:30:52;;;;;;;3.45;1.80;;;;;;;9.73;89.99;100087.75;5036627;28;20416;-75
2022/12/21 06:33:19;;;;;;;2.65;2.40;;;;;;;9.74;90.11;100089.41;5035728;28;20424;-74
2022/12/21 06:35:44;;;;;;;4.13;1.90;;;;;;;9.74;90.27;100087.50;5030024;28;21013;-74
2022/12/21 06:38:09;;;;;;;2.83;1.90;;;;;;;9.77;90.03;100091.59;5026264;28;20414;-74
2022/12/21 06:40:35;;;;;;;8.20;2.93;;;;;;;9.78;90.42;100095.94;5017002;28;20412;-74
2022/12/21 06:43:00;;;;;;;7.23;3.43;;;;;;;9.82;90.42;100091.66;5019838;28;20428;-74
2022/12/21 06:45:26;;;;;;;15.07;4.03;;;;;;;9.78;90.33;100096.75;5032832;28;20406;-74
2022/12/21 06:47:53;;;;;;;8.48;3.35;;;;;;;9.80;90.88;100097.34;5031166;28;20766;-75
2022/12/21 06:50:18;;;;;;;5.80;3.20;;;;;;;9.85;90.60;100100.09;5025103;28;20435;-74
2022/12/21 06:52:43;;;;;;;6.78;3.42;;;;;;;9.88;90.43;100102.31;5031761;28;20453;-75
2022/12/21 06:55:09;;;;;;;4.13;3.07;;;;;;;9.88;90.64;100105.00;5051064;28;20385;-74
2022/12/21 06:57:34;;;;;;;4.23;2.83;;;;;;;9.91;91.04;100101.03;5041222;28;20540;-74
2022/12/21 06:59:59;;;;;;;2.37;1.90;;;;;;;9.98;90.53;100106.25;5034428;28;20395;-74
2022/12/21 07:02:25;;;;;;;2.07;1.87;;;;;;;10.03;91.04;100109.84;5032992;28;20415;-74
2022/12/21 07:04:52;;;;;;;1.70;1.60;;;;;;;10.11;90.60;100111.31;5032868;28;20433;-75
2022/12/21 07:07:18;;;;;;;3.20;1.95;;;;;;;10.08;90.58;100115.31;5029902;28;20819;-75
2022/12/21 07:09:43;;;;;;;5.22;1.90;;;;;;;10.05;90.66;100109.56;5032132;28;20411;-74
2022/12/21 07:12:08;;;;;;;4.50;2.10;;;;;;;10.12;90.71;100118.34;5036196;28;20403;-74
2022/12/21 07:14:34;;;;;;;3.47;2.17;;;;;;;10.11;90.70;100119.44;5013804;28;20474;-74
2022/12/21 07:16:59;;;;;;;3.20;2.20;;;;;;;10.10;90.90;100110.47;5035057;28;20460;-74
2022/12/21 07:19:25;;;;;;;3.97;2.20;;;;;;;10.09;91.33;100118.84;5042189;28;20501;-75
2022/12/21 07:21:50;;;;;;;8.80;2.17;;;;;;;10.08;91.18;100134.25;5022672;28;20413;-75
2022/12/21 07:24:15;;;;;;;2.90;1.80;;;;;;;10.12;91.30;100127.28;5025579;28;20424;-74
2022/12/21 07:26:41;;;;;;;6.77;2.00;;;;;;;10.12;91.34;100129.16;5029191;28;20486;-74
2022/12/21 07:29:10;;;;;;;4.97;2.57;;;;;;;10.11;91.33;100138.38;5037075;28;20466;-74
2022/12/21 07:31:35;;;;;;;4.22;1.75;;;;;;;10.13;91.23;100139.75;5047860;28;20408;-75
2022/12/21 07:34:00;;;;;;;4.87;2.00;;;;;;;10.09;91.39;100141.31;5029430;28;20416;-75
2022/12/21 07:36:26;;;;;;;5.53;2.40;;;;;;;10.13;91.71;100147.88;5020817;28;20765;-75
2022/12/21 07:38:52;;;;;;;4.67;2.27;;;;;;;10.15;91.66;100145.78;5031182;28;20417;-75
2022/12/21 07:41:18;;;;;;;4.47;2.10;;;;;;;10.17;91.78;100148.25;5044367;28;20398;-75
2022/12/21 07:43:43;;;;;;;2.70;2.03;;;;;;;10.17;91.36;100156.38;5042063;28;20399;-75
2022/12/21 07:46:09;;;;;;;3.53;1.87;;;;;;;10.15;91.39;100153.91;5044409;28;20442;-75
2022/12/21 07:48:35;;;;;;;2.50;2.00;;;;;;;10.11;91.81;100150.00;5044399;28;20432;-75
2022/12/21 07:51:00;;;;;;;7.37;2.27;;;;;;;10.10;91.62;100144.84;5028676;28;20452;-74
2022/12/21 07:53:26;;;;;;;4.53;2.20;;;;;;;10.12;91.97;100146.25;5035704;28;20772;-75
2022/12/21 07:55:51;;;;;;;4.45;2.35;;;;;;;10.14;91.78;100151.44;5047211;28;20931;-75
2022/12/21 07:58:17;;;;;;;4.25;2.22;;;;;;;10.11;91.79;100157.34;5047584;28;20393;-74
2022/12/21 08:00:42;;;;;;;5.40;2.67;;;;;;;10.10;91.95;100153.81;5050666;28;20914;-75
2022/12/21 08:03:08;;;;;;;8.00;2.70;;;;;;;10.10;92.12;100151.09;5035909;28;20544;-75
2022/12/21 08:05:34;;;;;;;5.43;2.05;;;;;;;10.10;91.82;100152.97;5031878;28;20395;-74
2022/12/21 08:08:02;;;;;;;5.82;2.10;;;;;;;10.16;91.82;100158.25;5030677;28;20381;-75
2022/12/21 08:10:27;;;;;;;6.47;2.13;;;;;;;10.19;91.46;100149.63;5041116;28;20445;-75
2022/12/21 08:12:53;;;;;;;3.43;1.67;;;;;;;10.19;91.63;100144.22;5042382;28;20437;-75
2022/12/21 08:15:21;;;;;;;6.90;2.20;;;;;;;10.22;91.70;100145.59;5028937;28;20455;-74
2022/12/21 08:17:46;;;;;;;4.20;2.17;;;;;;;10.25;91.70;100153.22;5050279;28;20429;-75
2022/12/21 08:20:11;;;;;;;6.90;2.37;;;;;;;10.23;91.68;100145.34;5050657;28;20421;-75
2022/12/21 08:22:37;;;;;;;9.63;2.50;;;;;;;10.22;91.80;100154.53;5035185;28;20414;-74
2022/12/21 08:25:02;;;;;;;6.72;2.60;;;;;;;10.30;91.78;100143.28;5041968;28;20428;-75
2022/12/21 08:27:27;;;;;;;6.47;3.07;;;;;;;10.27;91.44;100149.19;5053546;28;20391;-75
2022/12/21 08:29:53;;;;;;;5.73;2.80;;;;;;;10.24;91.72;100146.97;5051956;28;20417;-75
2022/12/21 08:32:18;;;;;;;4.13;2.33;;;;;;;10.26;91.78;100150.28;5042421;28;20511;-75
2022/12/21 08:34:45;;;;;;;3.30;2.00;;;;;;;10.30;91.63;100150.59;5033550;28;20406;-75
2022/12/21 08:37:10;;;;;;;6.63;2.38;;;;;;;10.27;91.70;100151.09;5053471;28;20394;-74
2022/12/21 08:39:36;;;;;;;4.72;2.45;;;;;;;10.36;91.80;100145.00;5042685;28;20439;-75
2022/12/21 08:42:02;;;;;;;6.20;2.43;;;;;;;10.35;91.61;100146.06;5020256;28;20498;-75
2022/12/21 08:44:28;;;;;;;5.97;2.20;;;;;;;10.37;91.51;100153.94;5031147;28;20409;-74
2022/12/21 08:46:53;;;;;;;3.43;2.40;;;;;;;10.35;91.64;100158.78;5041769;28;20416;-74
2022/12/21 08:49:18;;;;;;;6.97;1.80;;;;;;;10.33;91.59;100145.50;5039827;28;20411;-74
2022/12/21 08:51:44;;;;;;;13.00;2.45;;;;;;;10.33;91.62;100156.34;5041827;28;20468;-74
2022/12/21 08:54:09;;;;;;;11.57;5.10;;;;;;;10.33;92.08;100159.03;5047054;28;20440;-75
2022/12/21 08:56:35;;;;;;;5.27;2.10;;;;;;;10.35;91.81;100161.47;5062725;28;20452;-75
2022/12/21 08:59:03;;;;;;;5.05;2.10;;;;;;;10.36;92.12;100161.25;5031209;28;20401;-75
2022/12/21 09:01:29;;;;;;;3.50;2.20;;;;;;;10.41;92.08;100174.00;5041419;28;20435;-74
2022/12/21 09:03:54;;;;;;;9.15;2.35;;;;;;;10.41;92.17;100168.59;5048469;28;20953;-74
2022/12/21 09:06:20;;;;;;;5.25;2.40;;;;;;;10.44;92.08;100178.13;5049370;28;20386;-75
2022/12/21 09:08:45;;;;;;;4.70;2.15;;;;;;;10.42;92.11;100175.66;5051357;28;20791;-74
2022/12/21 09:11:13;;;;;;;5.03;2.00;;;;;;;10.39;92.09;100178.88;5053722;28;20398;-75
2022/12/21 09:13:38;;;;;;;5.68;2.40;;;;;;;10.37;92.51;100186.44;5038346;28;20424;-75
2022/12/21 09:16:12;;;;;;;7.57;2.17;;;;;;;10.61;91.54;100192.44;5034370;28;20809;-75
2022/12/21 09:18:37;;;;;;;4.28;2.00;;;;;;;10.69;91.21;100192.00;5033259;28;20420;-74
2022/12/21 09:21:03;;;;;;;4.83;1.80;;;;;;;10.79;90.85;100192.13;5024000;28;20423;-74
2022/12/21 09:23:28;;;;;;;6.43;1.90;;;;;;;10.83;90.57;100190.56;5018268;28;20421;-74
2022/12/21 09:25:53;;;;;;;4.30;1.80;;;;;;;10.83;90.50;100201.41;5025630;28;20400;-76
2022/12/21 09:28:19;;;;;;;4.97;2.13;;;;;;;10.88;90.58;100199.56;5032486;28;20466;-77
2022/12/21 09:30:44;;;;;;;6.27;1.70;;;;;;;10.85;90.19;100210.91;5027629;28;20782;-75
2022/12/21 09:33:09;;;;;;;9.83;2.50;;;;;;;10.84;90.55;100208.44;5023185;28;20432;-74
2022/12/21 09:35:36;;;;;;;6.57;1.92;;;;;;;10.85;90.75;100210.91;5042915;28;20498;-74
2022/12/21 09:38:03;;;;;;;3.28;1.85;;;;;;;10.86;90.81;100212.56;5026528;28;20408;-75
2022/12/21 09:40:30;;;;;;;2.90;2.15;;;;;;;10.85;90.91;100210.09;5026732;28;21032;-75
2022/12/21 09:43:29;;;;;;;4.20;2.50;;;;;;;10.96;90.59;100205.63;5020520;28;20431;-75
2022/12/21 09:46:04;;;;;;;3.40;1.98;;;;;;;10.87;90.54;100207.94;5017953;28;20544;-74
2022/12/21 09:48:58;;;;;;;4.68;2.40;;;;;;;10.85;91.07;100212.81;5020487;28;20919;-74
2022/12/21 09:51:25;;;;;;;7.57;2.72;;;;;;;10.83;90.89;100207.63;5032542;28;20775;-74
2022/12/21 09:54:04;;;;;;;7.10;2.47;;;;;;;10.93;91.46;100207.75;5033161;28;21009;-76
2022/12/21 09:56:30;;;;;;;4.85;3.30;;;;;;;11.06;90.71;100203.84;5032346;28;20420;-75
2022/12/21 09:59:01;;;;;;;10.70;3.50;;;;;;;11.19;90.23;100205.34;5030850;28;20456;-75
2022/12/21 10:01:47;;;;;;;4.55;3.08;;;;;;;11.26;89.49;100201.34;5027256;28;20499;-74
2022/12/21 10:05:04;;;;;;;3.50;2.87;;;;;;;11.25;89.71;100199.72;5018842;28;20413;-75
2022/12/21 10:08:00;;;;;;;4.05;2.30;;;;;;;11.22;89.94;100202.94;5027963;28;20414;-75
2022/12/21 10:10:37;;;;;;;6.47;2.70;;;;;;;11.30;89.91;100199.75;5045883;28;20419;-75
2022/12/21 10:13:20;;;;;;;5.68;2.30;;;;;;;11.29;89.60;100203.56;5031076;28;20424;-75
2022/12/21 10:22:38;;;;;;;3.55;1.85;;;;;;;11.18;90.24;100200.97;5036081;28;20889;-74
2022/12/21 10:25:13;;;;;;;3.00;1.58;;;;;;;11.17;90.21;100200.16;5033644;28;20436;-74
2022/12/21 10:27:46;;;;;;;3.00;1.75;;;;;;;11.19;90.29;100195.31;5025752;28;20398;-74
2022/12/21 10:30:14;;;;;;;2.95;2.10;;;;;;;11.23;90.36;100195.63;5043438;28;20790;-74
2022/12/21 10:32:41;;;;;;;7.95;2.60;;;;;;;11.23;90.47;100195.63;5032349;28;20403;-75
2022/12/21 10:35:25;;;;;;;2.30;2.00;;;;;;;11.32;90.30;100194.09;5015342;28;20584;-74
2022/12/21 10:37:55;;;;;;;1.52;1.40;;;;;;;11.34;90.10;100200.88;5050786;28;20815;-75
2022/12/21 10:40:25;;;;;;;6.47;2.33;;;;;;;11.35;90.06;100197.09;5028300;28;20570;-76
2022/12/21 10:42:52;;;;;;;5.88;2.58;;;;;;;11.43;90.10;100191.19;5038962;28;20427;-75
2022/12/21 10:45:21;;;;;;;6.25;2.00;;;;;;;11.50;89.88;100199.13;5035212;28;20409;-75
2022/12/21 10:47:46;;;;;;;5.38;2.50;;;;;;;11.51;89.85;100205.38;5045757;28;20390;-75
2022/12/21 10:50:16;;;;;;;12.93;3.67;;;;;;;11.43;89.89;100206.66;5021733;28;20451;-74
2022/12/21 10:52:55;;;;;;;5.20;2.22;;;;;;;11.39;89.94;100209.06;5029766;28;20421;-75
2022/12/21 10:55:30;;;;;;;7.35;3.78;;;;;;;11.41;90.25;100206.09;5030798;28;20464;-74
2022/12/21 10:58:23;;;;;;;4.23;2.20;;;;;;;11.40;90.09;100201.75;5030198;28;20801;-74
2022/12/21 11:01:07;;;;;;;5.72;2.97;;;;;;;11.39;90.04;100202.84;5029476;28;20490;-75
2022/12/21 11:03:38;;;;;;;10.85;4.07;;;;;;;11.38;90.35;100212.03;5054687;28;20960;-75
2022/12/21 11:06:16;;;;;;;9.25;4.03;;;;;;;11.44;90.05;100209.13;5045137;28;20436;-75
2022/12/21 11:08:49;;;;;;;7.60;3.57;;;;;;;11.57;89.84;100204.34;5022231;28;20405;-75
2022/12/21 11:11:39;;;;;;;7.32;3.97;;;;;;;11.63;89.41;100206.03;5026019;28;20393;-75
2022/12/21 11:14:15;;;;;;;7.38;3.30;;;;;;;11.69;89.62;100202.31;5022053;28;20432;-74
2022/12/21 11:16:44;;;;;;;5.20;2.33;;;;;;;11.78;89.21;100198.88;5037043;28;20787;-75
2022/12/21 11:19:12;;;;;;;6.85;2.25;;;;;;;11.79;88.97;100188.81;5016381;28;20445;-75
2022/12/21 11:21:47;;;;;;;7.78;3.67;;;;;;;11.80;89.18;100187.75;5020752;28;20742;-75
2022/12/21 11:24:19;;;;;;;4.55;2.65;;;;;;;11.82;89.06;100188.34;5032670;28;20443;-74
2022/12/21 11:26:53;;;;;;;3.67;2.47;;;;;;;11.82;89.31;100180.97;5027760;28;20412;-75
2022/12/21 11:29:26;;;;;;;5.80;2.55;;;;;;;11.90;88.79;100193.28;5029756;28;20405;-74
2022/12/21 11:32:01;;;;;;;4.82;2.13;;;;;;;12.01;88.75;100183.31;5024874;28;20385;-75
2022/12/21 11:34:33;;;;;;;6.93;1.88;;;;;;;12.08;88.36;100181.19;5021780;28;20471;-76
2022/12/21 11:37:01;;;;;;;3.47;2.17;;;;;;;12.01;88.17;100180.59;5050927;28;20394;-74
2022/12/21 11:39:27;;;;;;;3.60;1.98;;;;;;;11.98;88.50;100176.50;5045161;28;20756;-75
2022/12/21 11:41:54;;;;;;;2.10;1.40;;;;;;;11.93;88.50;100174.56;5038403;28;20481;-75
2022/12/21 11:44:24;;;;;;;5.72;2.28;;;;;;;11.88;88.71;100179.16;5032631;28;20420;-75
2022/12/21 11:47:01;;;;;;;3.97;2.00;;;;;;;11.86;89.04;100181.28;5035186;28;20496;-76
2022/12/21 11:49:48;;;;;;;3.95;1.50;;;;;;;11.82;89.08;100174.75;5028578;28;20429;-74
2022/12/21 11:52:38;;;;;;;2.20;2.00;;;;;;;11.79;89.10;100175.25;5023707;28;20401;-75
2022/12/21 11:55:20;;;;;;;3.42;2.10;;;;;;;11.74;89.20;100173.34;5031017;28;20417;-75
2022/12/21 11:58:00;;;;;;;5.15;1.83;;;;;;;11.74;89.46;100167.91;5019385;28;20411;-75